Flight Briefing for CPX233

Departure Arrival
Sacramento International Airport (KSMF)
Click to view FAA NOTAMS
Phoenix Sky Harbor International Airport (KPHX)
Click to view FAA NOTAMS
Departure Time Arrival Time
N/A N/A
Aircraft Distance
B767-300BDSF 562nm
Departure METAR Arrival METAR
KSMF 192253Z 28004KT 10SM BKN250 11/M01 A3016 RMK AO2 SLP212 T01111011 KPHX 192251Z 28011G19KT 10SM SCT085 13/M07 A2997 RMK AO2 SLP144 T01281072
Suggested Route
SCTWN2 SCTWN DOSCO OAL LIDAT BTY J92 BLD PRFUM WOTRO BRUSR1


View recent IFR Routes data
Notes



Charts and Procedures

Charts for KSMF
No chart available
Charts for KPHX
No chart available

Ventusky Weather




{"cat":null,"equip":null,"transponder":null,"pbn":"PBN\/","maxpax":null,"oew":"0.0","mzfw":"0.0","mtow":"0.0","mlw":"0.0","maxfuel":"0.0"} DEVELOPMENTAL TEST USE ONLY